»·PEaware :: ASA368 KBOI-KPDX

ASA368 :: KBOI-KPDX

FLIGHT INFORMATION

Flight Status: Arrived
Operator:
Alaska Airlines
More flights by this operator :: More flights under this callsign
Pilot: Martin T. (17809)
Aircraft: BOEING 737-300
(B733)
More flights by this aircraft type
Origin: KBOI Boise Air Terminal/Gowen
United States
Destination: KPDX Portland Intl
United States
More flights between these airports :: More routes between these airports
Route: +BOI SAILL BUEEL JOTBA HHOOD4
File this flight plan on PilotEdge
Remarks: XPlane 11
Altitude:
(Current/Filed)
34,000ft
Speed:
(Current/Filed)
420kts
Departed: 08-Jan-18 12:28 PM
Arrived: 08-Jan-18 01:50 PM
Distance/Time
Traveled:
298nm/1:22
Distance/Time
To Go:
Arrived

Flight Plot

Page will automatically refresh every two minutes.

Flight plan parsing failed; only flown route is shown


Map Options




Map Legend


Flown Route
Filed Route
Departure Airport
Arrival Airport
Navaid (VOR, NDB)
Fix

Horizontal Profiles

Position Reports

Time Latitude Longitude Heading Altitude Ground
Speed
08-Jan-18 12:09 43.566574 -116.218948 24 2845ft 0kts
08-Jan-18 12:10 43.566574 -116.218948 24 2845ft 0kts
08-Jan-18 12:11 43.566574 -116.218948 24 2845ft 0kts
08-Jan-18 12:12 43.566574 -116.218948 24 2845ft 0kts
08-Jan-18 12:13 43.566574 -116.218948 24 2845ft 0kts
08-Jan-18 12:14 43.566574 -116.218948 24 2845ft 0kts
08-Jan-18 12:15 43.566574 -116.218948 24 2845ft 0kts
08-Jan-18 12:16 43.566574 -116.218948 24 2845ft 0kts
08-Jan-18 12:17 43.566574 -116.218948 24 2845ft 0kts
08-Jan-18 12:18 43.566574 -116.218948 24 2845ft 0kts
08-Jan-18 12:19 43.566574 -116.218948 24 2845ft 0kts
08-Jan-18 12:20 43.566574 -116.218948 24 2845ft 0kts
08-Jan-18 12:21 43.566574 -116.218948 24 2845ft 0kts
08-Jan-18 12:22 43.566574 -116.218948 24 2845ft 0kts
08-Jan-18 12:23 43.566574 -116.218948 24 2845ft 0kts
08-Jan-18 12:24 43.566574 -116.218948 24 2845ft 0kts
08-Jan-18 12:25 43.566574 -116.218948 24 2845ft 0kts
08-Jan-18 12:26 43.566185 -116.218958 335 2845ft 2kts
08-Jan-18 12:27 43.565930 -116.218600 292 2845ft 0kts
08-Jan-18 12:28 43.565930 -116.218600 292 2845ft 0kts
08-Jan-18 12:29 43.565930 -116.218600 292 2845ft 0kts
08-Jan-18 12:30 43.566167 -116.221432 297 2845ft 17kts
08-Jan-18 12:31 43.568808 -116.229091 295 2845ft 25kts
08-Jan-18 12:32 43.570902 -116.235552 264 2845ft 0kts
08-Jan-18 12:33 43.570896 -116.235604 259 2845ft 2kts
08-Jan-18 12:34 43.567556 -116.229166 114 2845ft 91kts
08-Jan-18 12:35 43.548656 -116.176011 116 3722ft 190kts
08-Jan-18 12:36 43.524536 -116.108108 114 5555ft 213kts
08-Jan-18 12:37 43.500710 -116.033804 113 7499ft 221kts
08-Jan-18 12:38 43.457658 -116.002731 202 8462ft 194kts
08-Jan-18 12:39 43.433767 -116.054881 282 9375ft 212kts
08-Jan-18 12:40 43.442701 -116.138898 272 11104ft 241kts
08-Jan-18 12:41 43.469782 -116.231665 293 11707ft 287kts
08-Jan-18 12:42 43.501916 -116.325805 293 13855ft 292kts
08-Jan-18 12:43 43.536278 -116.423835 292 16314ft 296kts
08-Jan-18 12:44 43.573859 -116.511906 307 18121ft 318kts
08-Jan-18 12:45 43.626800 -116.603994 289 19846ft 320kts
08-Jan-18 12:46 43.651385 -116.704739 281 21561ft 322kts
08-Jan-18 12:47 43.672838 -116.818479 279 23368ft 327kts
08-Jan-18 12:48 43.693474 -116.932837 279 24839ft 337kts
08-Jan-18 12:49 43.714925 -117.052943 279 26220ft 346kts
08-Jan-18 12:50 43.745323 -117.173093 287 27477ft 360kts
08-Jan-18 12:51 43.783475 -117.293845 287 29077ft 357kts
08-Jan-18 12:52 43.821208 -117.413933 287 30465ft 355kts
08-Jan-18 12:53 43.858413 -117.532870 287 31697ft 353kts
08-Jan-18 12:54 43.900727 -117.646411 296 32737ft 358kts
08-Jan-18 12:55 43.947566 -117.747310 295 33663ft 356kts
08-Jan-18 12:56 43.999179 -117.859215 295 34058ft 362kts
08-Jan-18 12:57 44.051599 -117.973244 295 34067ft 362kts
08-Jan-18 12:58 44.101721 -118.082726 295 34065ft 363kts
08-Jan-18 12:59 44.146428 -118.180137 295 34063ft 362kts
08-Jan-18 13:00 44.197334 -118.292051 295 34065ft 362kts
08-Jan-18 13:01 44.239366 -118.384844 295 34065ft 362kts
08-Jan-18 13:02 44.298097 -118.515022 295 34063ft 362kts
08-Jan-18 13:03 44.339775 -118.607745 295 34065ft 362kts
08-Jan-18 13:04 44.383761 -118.706066 294 34066ft 362kts
08-Jan-18 13:05 44.441847 -118.836341 294 34065ft 362kts
08-Jan-18 13:06 44.483332 -118.929677 294 34065ft 361kts
08-Jan-18 13:07 44.541056 -119.060057 294 34066ft 361kts
08-Jan-18 13:08 44.582370 -119.153739 294 34066ft 361kts
08-Jan-18 13:09 44.631040 -119.264500 294 34064ft 362kts
08-Jan-18 13:10 44.680170 -119.376732 294 34065ft 361kts
08-Jan-18 13:11 44.729185 -119.489154 294 34063ft 361kts
08-Jan-18 13:12 44.777741 -119.600961 294 34067ft 361kts
08-Jan-18 13:13 44.815816 -119.689028 294 34064ft 361kts
08-Jan-18 13:14 44.865154 -119.803564 294 33642ft 365kts
08-Jan-18 13:15 44.916901 -119.924046 294 32373ft 377kts
08-Jan-18 13:16 44.966666 -120.040351 294 31068ft 368kts
08-Jan-18 13:17 45.014548 -120.152783 294 29777ft 358kts
08-Jan-18 13:18 45.060598 -120.261384 294 28515ft 356kts
08-Jan-18 13:19 45.102669 -120.360876 294 27329ft 346kts
08-Jan-18 13:20 45.144122 -120.461170 292 26112ft 337kts
08-Jan-18 13:21 45.182529 -120.569754 287 24808ft 325kts
08-Jan-18 13:22 45.217932 -120.659333 291 24028ft 323kts
08-Jan-18 13:23 45.224616 -120.676480 291 24005ft 323kts
08-Jan-18 13:24 45.263769 -120.776474 292 23084ft 317kts
08-Jan-18 13:25 45.302678 -120.875886 293 21704ft 306kts
08-Jan-18 13:26 45.338710 -120.969332 292 20053ft 288kts
08-Jan-18 13:27 45.371708 -121.054949 293 18514ft 287kts
08-Jan-18 13:28 45.402800 -121.135683 294 17041ft 282kts
08-Jan-18 13:29 45.433703 -121.228109 284 15365ft 274kts
08-Jan-18 13:30 45.453201 -121.327172 284 13909ft 270kts
08-Jan-18 13:31 45.472828 -121.426714 285 13047ft 271kts
08-Jan-18 13:32 45.492556 -121.526612 285 12115ft 271kts
08-Jan-18 13:33 45.511672 -121.623380 285 11048ft 251kts
08-Jan-18 13:34 45.526716 -121.700004 285 10296ft 246kts
08-Jan-18 13:35 45.532354 -121.793596 274 10199ft 247kts
08-Jan-18 13:36 45.535796 -121.888829 274 10202ft 247kts
08-Jan-18 13:37 45.543431 -121.982250 286 10201ft 246kts
08-Jan-18 13:38 45.562015 -122.071296 286 10201ft 246kts
08-Jan-18 13:39 45.580859 -122.161498 286 10201ft 246kts
08-Jan-18 13:40 45.599599 -122.251513 286 10201ft 246kts
08-Jan-18 13:41 45.617874 -122.340546 286 9809ft 249kts
08-Jan-18 13:42 45.635508 -122.426390 287 8551ft 233kts
08-Jan-18 13:43 45.658083 -122.504994 297 7313ft 224kts
08-Jan-18 13:44 45.684404 -122.578203 297 6121ft 225kts
08-Jan-18 13:45 45.710896 -122.651611 297 5170ft 224kts
08-Jan-18 13:46 45.737938 -122.726713 297 5209ft 223kts
08-Jan-18 13:47 45.762992 -122.797154 296 5204ft 205kts
08-Jan-18 13:48 45.783421 -122.871376 267 5153ft 209kts
08-Jan-18 13:49 45.738759 -122.911764 163 4159ft 217kts
08-Jan-18 13:50 45.694896 -122.857034 122 3180ft 213kts
08-Jan-18 13:51 45.669238 -122.788500 116 3167ft 193kts
08-Jan-18 13:52 45.645191 -122.725277 118 2073ft 178kts
08-Jan-18 13:53 45.624341 -122.671625 118 1243ft 149kts
08-Jan-18 13:54 45.607308 -122.627754 118 561ft 147kts
08-Jan-18 13:55 45.589355 -122.581686 118 23ft 114kts
08-Jan-18 13:56 45.583584 -122.570127 295 23ft 0kts
08-Jan-18 13:57 45.583872 -122.570896 298 23ft 15kts
08-Jan-18 13:58 45.586970 -122.578764 299 23ft 22kts
08-Jan-18 13:59 45.589563 -122.586657 263 23ft 23kts
08-Jan-18 14:00 45.592110 -122.594237 303 23ft 20kts
08-Jan-18 14:01 45.590618 -122.597316 115 23ft 9kts

Navigation Log

Ident Type
Flight plan parsing failed, navigation log unavailable